Time;durP1;ratioP1;P1;durP2;ratioP2;P2;SDS_P1;SDS_P2;PMS_P1;PMS_P2;Temp;Humidity;BMP_temperature;BMP_pressure;BME280_temperature;BME280_humidity;BME280_pressure;Samples;Min_cycle;Max_cycle;Signal;HPM_P1;HPM_P2
2022/01/29 00:00:38;;;;;;;46.80;28.95;;;7.10;99.90;;;;;;5049230;28;20045;-69
2022/01/29 00:03:04;;;;;;;47.50;27.73;;;7.10;99.90;;;;;;5037714;28;20136;-69
2022/01/29 00:05:29;;;;;;;48.35;28.10;;;7.10;99.90;;;;;;5048052;28;20546;-68
2022/01/29 00:07:55;;;;;;;48.97;28.08;;;7.10;99.90;;;;;;5051307;28;20060;-69
2022/01/29 00:10:21;;;;;;;43.15;27.35;;;7.10;99.90;;;;;;5043813;28;20036;-69
2022/01/29 00:12:47;;;;;;;44.17;27.65;;;7.10;99.90;;;;;;5043650;28;20060;-69
2022/01/29 00:15:12;;;;;;;48.08;29.15;;;7.10;99.90;;;;;;5047983;28;20060;-69
2022/01/29 00:17:38;;;;;;;46.67;26.83;;;7.10;99.90;;;;;;5044392;28;20075;-69
2022/01/29 00:20:05;;;;;;;48.15;27.63;;;7.10;99.90;;;;;;5049397;28;20056;-68
2022/01/29 00:22:30;;;;;;;43.78;28.48;;;7.10;99.90;;;;;;5052912;28;20069;-68
2022/01/29 00:24:57;;;;;;;41.50;25.65;;;7.00;99.90;;;;;;5046957;28;20485;-68
2022/01/29 00:27:25;;;;;;;42.78;25.25;;;7.10;99.90;;;;;;5041045;28;20057;-69
2022/01/29 00:29:51;;;;;;;46.28;25.33;;;7.10;99.90;;;;;;5048719;28;20072;-69
2022/01/29 00:32:16;;;;;;;45.83;25.45;;;7.10;99.90;;;;;;5044305;28;20488;-69
2022/01/29 00:34:42;;;;;;;43.97;25.17;;;7.10;99.90;;;;;;5044952;28;20365;-69
2022/01/29 00:37:08;;;;;;;40.80;25.75;;;7.10;99.90;;;;;;5048574;28;21356;-68
2022/01/29 00:39:34;;;;;;;45.47;26.30;;;7.10;99.90;;;;;;5054265;28;20059;-69
2022/01/29 00:42:00;;;;;;;47.40;26.58;;;7.10;99.90;;;;;;5036700;28;20068;-69
2022/01/29 00:44:26;;;;;;;50.92;27.40;;;7.10;99.90;;;;;;5039058;28;20072;-69
2022/01/29 00:46:51;;;;;;;46.88;25.77;;;7.10;99.90;;;;;;5042337;28;20049;-69
2022/01/29 00:49:17;;;;;;;48.13;27.65;;;7.10;99.90;;;;;;5043039;28;20053;-69
2022/01/29 00:51:42;;;;;;;48.95;26.05;;;7.10;99.90;;;;;;5050995;28;20551;-69
2022/01/29 00:54:08;;;;;;;46.88;25.95;;;7.00;99.90;;;;;;5046057;28;20045;-68
2022/01/29 00:56:34;;;;;;;47.88;26.30;;;7.10;99.90;;;;;;5047739;28;20040;-69
2022/01/29 00:58:59;;;;;;;48.47;27.27;;;7.10;99.90;;;;;;5044449;28;20045;-69
2022/01/29 01:01:25;;;;;;;45.00;27.52;;;7.00;99.90;;;;;;5047456;28;20067;-68
2022/01/29 01:03:50;;;;;;;56.10;27.48;;;7.00;99.90;;;;;;5039985;28;20508;-69
2022/01/29 01:06:17;;;;;;;49.72;27.80;;;7.00;99.90;;;;;;5043435;28;20045;-69
2022/01/29 01:08:43;;;;;;;46.72;27.58;;;7.00;99.90;;;;;;5049641;28;20072;-69
2022/01/29 01:11:09;;;;;;;48.63;27.52;;;7.00;99.90;;;;;;5020973;28;20041;-69
2022/01/29 01:13:35;;;;;;;49.00;27.98;;;7.00;99.90;;;;;;5042003;28;20033;-68
2022/01/29 01:16:01;;;;;;;46.85;27.80;;;7.00;99.90;;;;;;5043553;28;20056;-68
2022/01/29 01:18:27;;;;;;;52.03;28.98;;;7.00;99.90;;;;;;5031387;28;20056;-69
2022/01/29 01:20:53;;;;;;;55.42;28.15;;;7.00;99.90;;;;;;5042726;28;20311;-68
2022/01/29 01:23:19;;;;;;;50.30;29.83;;;7.00;99.90;;;;;;5048899;28;20059;-69
2022/01/29 01:25:45;;;;;;;51.10;28.73;;;7.00;99.90;;;;;;5042336;28;20037;-68
2022/01/29 01:28:10;;;;;;;51.15;29.45;;;7.00;99.90;;;;;;5046576;28;20249;-68
2022/01/29 01:30:36;;;;;;;50.80;28.15;;;7.00;99.90;;;;;;5040426;28;20053;-69
2022/01/29 01:33:03;;;;;;;51.05;29.10;;;7.00;99.90;;;;;;5041529;28;20456;-69
2022/01/29 01:35:35;;;;;;;49.72;28.95;;;7.00;99.90;;;;;;5042972;28;20151;-69
2022/01/29 01:38:11;;;;;;;55.28;30.08;;;7.00;99.90;;;;;;5044203;28;20053;-69
2022/01/29 01:40:40;;;;;;;59.00;30.63;;;7.00;99.90;;;;;;5034728;28;20036;-68
2022/01/29 01:43:06;;;;;;;59.03;29.27;;;7.10;99.90;;;;;;5040725;28;20064;-70
2022/01/29 01:45:32;;;;;;;55.95;29.70;;;7.00;99.90;;;;;;5049179;28;20356;-68
2022/01/29 01:47:58;;;;;;;51.25;28.90;;;7.10;99.90;;;;;;5039016;28;20540;-69
2022/01/29 01:50:24;;;;;;;50.72;29.15;;;7.00;99.90;;;;;;5048115;28;20140;-68
2022/01/29 01:52:51;;;;;;;52.92;29.60;;;7.10;99.90;;;;;;5035776;28;20548;-68
2022/01/29 01:55:17;;;;;;;50.80;27.73;;;7.10;99.90;;;;;;5043924;28;20120;-67
2022/01/29 01:57:43;;;;;;;50.28;28.85;;;7.10;99.90;;;;;;5037848;28;20045;-69
2022/01/29 02:00:10;;;;;;;51.03;29.50;;;7.10;99.90;;;;;;5038810;28;20520;-69
2022/01/29 02:02:36;;;;;;;51.05;28.15;;;7.10;99.90;;;;;;5046351;28;20464;-68
2022/01/29 02:05:02;;;;;;;58.08;30.08;;;7.10;99.90;;;;;;5047054;28;20159;-68
2022/01/29 02:07:29;;;;;;;48.47;28.55;;;7.10;99.90;;;;;;5045709;28;20053;-69
2022/01/29 02:09:55;;;;;;;47.35;27.52;;;7.10;99.90;;;;;;5047500;28;20052;-70
2022/01/29 02:12:24;;;;;;;51.28;28.55;;;7.10;99.90;;;;;;5032127;28;20130;-68
2022/01/29 02:14:50;;;;;;;56.08;28.98;;;7.10;99.90;;;;;;5040253;28;20073;-68
2022/01/29 02:17:16;;;;;;;46.72;27.45;;;7.10;99.90;;;;;;5043847;28;20095;-68
2022/01/29 02:19:42;;;;;;;58.22;27.45;;;7.20;99.90;;;;;;5027420;28;20060;-68
2022/01/29 02:22:08;;;;;;;49.75;28.27;;;7.20;99.90;;;;;;5043195;28;20389;-67
2022/01/29 02:24:33;;;;;;;50.17;26.98;;;7.20;99.90;;;;;;5044722;28;20128;-68
2022/01/29 02:26:59;;;;;;;57.38;29.30;;;7.20;99.90;;;;;;5055008;28;20370;-69
2022/01/29 02:29:25;;;;;;;48.90;26.35;;;7.20;99.90;;;;;;5042640;28;20542;-68
2022/01/29 02:31:56;;;;;;;52.58;28.27;;;7.20;99.90;;;;;;5044786;28;20041;-68
2022/01/29 02:34:23;;;;;;;55.40;27.50;;;7.20;99.90;;;;;;5046398;28;20052;-68
2022/01/29 02:36:49;;;;;;;51.95;28.45;;;7.20;99.90;;;;;;5053300;28;20076;-68
2022/01/29 02:39:17;;;;;;;50.45;27.13;;;7.20;99.90;;;;;;5044890;28;20202;-69
2022/01/29 02:41:44;;;;;;;52.35;27.88;;;7.20;99.90;;;;;;5047206;28;20123;-69
2022/01/29 02:44:15;;;;;;;51.22;26.83;;;7.30;99.90;;;;;;5042611;28;20041;-68
2022/01/29 02:46:50;;;;;;;54.22;25.60;;;7.30;99.90;;;;;;5046767;28;20071;-67
2022/01/29 02:49:23;;;;;;;50.77;26.13;;;7.30;99.90;;;;;;5049594;28;20045;-68
2022/01/29 02:51:52;;;;;;;46.65;25.35;;;7.30;99.90;;;;;;5037281;28;20045;-68
2022/01/29 02:54:18;;;;;;;48.50;25.30;;;7.40;99.90;;;;;;5038816;28;20065;-68
2022/01/29 02:56:44;;;;;;;49.10;24.98;;;7.40;99.90;;;;;;5050709;28;20041;-68
2022/01/29 02:59:10;;;;;;;46.28;25.10;;;7.40;99.90;;;;;;5049192;28;20048;-68
2022/01/29 03:01:36;;;;;;;45.72;24.90;;;7.40;99.90;;;;;;5048809;28;20118;-69
2022/01/29 03:04:02;;;;;;;51.47;24.77;;;7.40;99.90;;;;;;5039971;28;20463;-68
2022/01/29 03:06:29;;;;;;;47.25;24.15;;;7.40;99.90;;;;;;5044875;28;20041;-69
2022/01/29 03:08:55;;;;;;;49.17;24.65;;;7.40;99.90;;;;;;5052310;28;20120;-68
2022/01/29 03:11:20;;;;;;;47.28;23.17;;;7.40;99.90;;;;;;5046926;28;20182;-68
2022/01/29 03:13:47;;;;;;;42.80;23.13;;;7.50;99.90;;;;;;5044061;28;20454;-68
2022/01/29 03:16:12;;;;;;;42.13;22.83;;;7.50;99.90;;;;;;5039729;28;20033;-67
2022/01/29 03:18:38;;;;;;;50.00;22.92;;;7.50;99.90;;;;;;5027584;28;20051;-68
2022/01/29 03:21:04;;;;;;;44.80;22.25;;;7.50;99.90;;;;;;5048631;28;20048;-68
2022/01/29 03:23:29;;;;;;;45.78;22.48;;;7.60;99.90;;;;;;5050269;28;20459;-68
2022/01/29 03:25:55;;;;;;;44.65;22.02;;;7.60;99.90;;;;;;5049344;28;20467;-68
2022/01/29 03:28:20;;;;;;;43.45;21.60;;;7.60;99.90;;;;;;5039482;28;20040;-67
2022/01/29 03:30:46;;;;;;;38.05;20.35;;;7.70;99.90;;;;;;5044146;28;20132;-70
2022/01/29 03:33:11;;;;;;;40.92;20.88;;;7.70;99.90;;;;;;5042221;28;20077;-68
2022/01/29 03:35:37;;;;;;;39.30;20.05;;;7.70;99.90;;;;;;5039794;28;20427;-68
2022/01/29 03:38:03;;;;;;;38.45;19.88;;;7.70;99.90;;;;;;5043251;28;20404;-68
2022/01/29 03:40:29;;;;;;;40.00;19.52;;;7.80;99.90;;;;;;5045831;28;20130;-68
2022/01/29 03:43:08;;;;;;;40.35;21.10;;;7.80;99.90;;;;;;5047647;28;20452;-68
2022/01/29 03:45:34;;;;;;;36.63;19.75;;;7.80;99.90;;;;;;5045451;28;20567;-68
2022/01/29 03:48:00;;;;;;;41.55;20.50;;;7.80;99.90;;;;;;5030636;28;20144;-68
2022/01/29 03:50:26;;;;;;;42.30;20.05;;;7.80;99.90;;;;;;5057539;28;20041;-68
2022/01/29 03:52:51;;;;;;;39.72;20.77;;;7.90;99.90;;;;;;5034947;28;20134;-69
2022/01/29 03:55:18;;;;;;;42.42;19.48;;;7.90;99.90;;;;;;5042036;28;20175;-68
2022/01/29 03:57:43;;;;;;;41.38;19.40;;;7.90;99.90;;;;;;5036074;28;20086;-68
2022/01/29 04:00:09;;;;;;;40.00;19.35;;;7.90;99.90;;;;;;5053346;28;20120;-68
2022/01/29 04:02:35;;;;;;;36.28;19.55;;;7.90;99.90;;;;;;5030354;28;20508;-70
2022/01/29 04:05:00;;;;;;;36.97;18.63;;;7.90;99.90;;;;;;5038108;28;20045;-70
2022/01/29 04:07:26;;;;;;;38.60;18.17;;;7.90;99.90;;;;;;5034690;28;20386;-69
2022/01/29 04:09:52;;;;;;;33.33;17.95;;;7.90;99.90;;;;;;5039088;28;20145;-69
2022/01/29 04:12:18;;;;;;;38.50;19.27;;;7.90;99.90;;;;;;5046512;28;20174;-69
2022/01/29 04:14:44;;;;;;;39.17;18.77;;;7.90;99.90;;;;;;5043346;28;20139;-69
2022/01/29 04:17:11;;;;;;;38.17;18.25;;;8.00;99.90;;;;;;5047258;28;20139;-69
2022/01/29 04:19:37;;;;;;;38.70;18.58;;;8.00;99.90;;;;;;5040906;28;20038;-69
2022/01/29 04:22:04;;;;;;;32.50;17.90;;;8.00;99.90;;;;;;5032114;28;20068;-69
2022/01/29 04:24:31;;;;;;;36.50;18.23;;;8.00;99.90;;;;;;5038184;28;20401;-69
2022/01/29 04:26:57;;;;;;;35.08;18.77;;;8.00;99.90;;;;;;5043260;28;20121;-69
2022/01/29 04:29:22;;;;;;;35.15;18.02;;;8.00;99.90;;;;;;5043830;28;20052;-69
2022/01/29 04:34:20;;;;;;;34.28;18.40;;;8.00;99.90;;;;;;5038440;28;20045;-70
2022/01/29 04:36:46;;;;;;;35.45;17.25;;;8.10;99.90;;;;;;5045687;28;20429;-69
2022/01/29 04:39:12;;;;;;;32.95;17.00;;;8.10;99.90;;;;;;5036914;28;20113;-69
2022/01/29 04:41:37;;;;;;;34.70;16.20;;;8.10;99.90;;;;;;5037773;28;20036;-69
2022/01/29 04:44:03;;;;;;;35.13;17.00;;;8.10;99.90;;;;;;5036089;28;20199;-69
2022/01/29 04:46:29;;;;;;;37.10;17.45;;;8.10;99.90;;;;;;5045976;28;20879;-69
2022/01/29 04:48:54;;;;;;;33.42;15.77;;;8.10;99.90;;;;;;5044080;28;20135;-69
2022/01/29 04:51:21;;;;;;;31.45;16.67;;;8.10;99.90;;;;;;5034161;28;20192;-69
2022/01/29 04:53:47;;;;;;;35.47;16.70;;;8.10;99.90;;;;;;5047743;28;20122;-69
2022/01/29 04:56:12;;;;;;;30.70;16.20;;;8.10;99.90;;;;;;5047705;28;20075;-70
2022/01/29 04:58:38;;;;;;;30.67;16.33;;;8.10;99.90;;;;;;5045817;28;20064;-69
2022/01/29 05:01:04;;;;;;;32.50;16.77;;;8.10;99.90;;;;;;5042216;28;20521;-70
2022/01/29 05:03:30;;;;;;;30.80;16.20;;;8.10;99.90;;;;;;5041465;28;20194;-71
2022/01/29 05:05:57;;;;;;;32.30;17.13;;;8.10;99.90;;;;;;5044290;28;20448;-70
2022/01/29 05:08:22;;;;;;;34.55;16.40;;;8.20;99.90;;;;;;5044764;28;20045;-71
2022/01/29 05:10:48;;;;;;;31.85;16.30;;;8.20;99.90;;;;;;5045331;28;20037;-70
2022/01/29 05:13:18;;;;;;;28.90;17.17;;;8.20;99.90;;;;;;5042067;28;20042;-70
2022/01/29 05:15:59;;;;;;;30.50;15.77;;;8.20;99.90;;;;;;5046356;28;20122;-69
2022/01/29 05:29:18;;;;;;;25.33;15.20;;;8.30;99.90;;;;;;5042184;28;20045;-69
2022/01/29 05:31:43;;;;;;;27.08;15.65;;;8.30;99.90;;;;;;5040783;28;20086;-70
2022/01/29 05:34:09;;;;;;;26.08;14.82;;;8.40;99.90;;;;;;5040587;28;20114;-69
2022/01/29 05:36:35;;;;;;;30.33;16.25;;;8.40;99.90;;;;;;5040161;28;20400;-69
2022/01/29 05:39:02;;;;;;;26.52;15.57;;;8.40;99.90;;;;;;5038802;28;20492;-70
2022/01/29 05:41:28;;;;;;;27.25;15.63;;;8.40;99.90;;;;;;5043235;28;20037;-70
2022/01/29 05:43:55;;;;;;;25.52;15.00;;;8.40;99.90;;;;;;5044660;28;20048;-69
2022/01/29 05:46:20;;;;;;;29.60;15.52;;;8.40;99.90;;;;;;5053573;28;20045;-69
2022/01/29 05:48:46;;;;;;;30.17;15.45;;;8.40;99.90;;;;;;5039770;28;20140;-69
2022/01/29 05:51:12;;;;;;;31.17;16.45;;;8.40;99.90;;;;;;5042094;28;20040;-70
2022/01/29 05:53:38;;;;;;;25.17;15.00;;;8.40;99.90;;;;;;5042515;28;20048;-70
2022/01/29 05:56:04;;;;;;;28.33;15.02;;;8.50;99.90;;;;;;5041917;28;20084;-70
2022/01/29 05:58:30;;;;;;;25.48;14.98;;;8.50;99.90;;;;;;5037386;28;20050;-69
2022/01/29 06:00:55;;;;;;;28.48;14.32;;;8.50;99.90;;;;;;5039774;28;20045;-71
2022/01/29 06:03:21;;;;;;;27.30;14.35;;;8.50;99.90;;;;;;5035342;28;20044;-69
2022/01/29 06:05:46;;;;;;;23.42;14.20;;;8.50;99.90;;;;;;5035821;28;20119;-69
2022/01/29 06:08:12;;;;;;;27.25;15.82;;;8.50;99.90;;;;;;5039185;28;20049;-69
2022/01/29 06:10:38;;;;;;;26.35;13.30;;;8.50;99.90;;;;;;5039934;28;20033;-69
2022/01/29 06:13:10;;;;;;;25.65;14.05;;;8.50;99.90;;;;;;5040123;28;20041;-69
2022/01/29 06:15:42;;;;;;;26.85;13.60;;;8.50;99.90;;;;;;5041519;28;20465;-69
2022/01/29 06:18:13;;;;;;;23.13;12.75;;;8.50;99.90;;;;;;5038360;28;20060;-69
2022/01/29 06:20:40;;;;;;;27.23;13.00;;;8.50;99.90;;;;;;5048724;28;20052;-68
2022/01/29 06:23:06;;;;;;;20.92;11.90;;;8.50;99.90;;;;;;5047471;28;20088;-69
2022/01/29 06:25:32;;;;;;;24.45;12.30;;;8.50;99.90;;;;;;5050232;28;20068;-69
2022/01/29 06:27:58;;;;;;;20.02;11.13;;;8.50;99.90;;;;;;5049619;28;20485;-69
2022/01/29 06:30:23;;;;;;;19.55;11.77;;;8.50;99.90;;;;;;5040648;28;20372;-70
2022/01/29 06:32:49;;;;;;;27.00;12.45;;;8.50;99.90;;;;;;5043688;28;20040;-69
2022/01/29 06:35:15;;;;;;;26.45;11.30;;;8.50;99.90;;;;;;5035583;28;20045;-69
2022/01/29 06:37:41;;;;;;;26.17;12.65;;;8.50;99.90;;;;;;5047229;28;20037;-69
2022/01/29 06:40:07;;;;;;;25.52;11.75;;;8.50;99.90;;;;;;5049484;28;20409;-70
2022/01/29 06:42:33;;;;;;;20.55;11.50;;;8.50;99.90;;;;;;5049008;28;20048;-70
2022/01/29 06:44:58;;;;;;;17.38;9.95;;;8.50;99.90;;;;;;5034973;28;20091;-70
2022/01/29 06:47:24;;;;;;;21.35;10.68;;;8.50;99.90;;;;;;5038863;28;20051;-71
2022/01/29 06:49:50;;;;;;;23.27;10.93;;;8.50;99.90;;;;;;5038134;28;20041;-69
2022/01/29 06:52:15;;;;;;;19.55;10.20;;;8.60;99.90;;;;;;5041330;28;20048;-69
2022/01/29 06:54:41;;;;;;;21.27;9.57;;;8.60;99.90;;;;;;5049093;28;20056;-69
2022/01/29 06:57:06;;;;;;;18.05;9.73;;;8.60;99.90;;;;;;5049702;28;20127;-70
2022/01/29 06:59:32;;;;;;;19.67;9.73;;;8.70;99.90;;;;;;5044733;28;20040;-70
2022/01/29 07:01:58;;;;;;;18.83;9.38;;;8.60;99.90;;;;;;5044403;28;20037;-69
2022/01/29 07:04:23;;;;;;;17.95;9.05;;;8.70;99.90;;;;;;5045837;28;20140;-70
2022/01/29 07:06:49;;;;;;;19.90;9.63;;;8.70;99.90;;;;;;5036692;28;20033;-69
2022/01/29 07:09:14;;;;;;;18.90;9.43;;;8.70;99.90;;;;;;5033051;28;20040;-70
2022/01/29 07:11:43;;;;;;;22.17;9.23;;;8.70;99.90;;;;;;5035217;28;20047;-69
2022/01/29 07:14:15;;;;;;;19.30;9.73;;;8.70;99.90;;;;;;5030671;28;20129;-69
2022/01/29 07:16:40;;;;;;;22.70;9.70;;;8.80;99.90;;;;;;5033638;28;20045;-68
2022/01/29 07:19:06;;;;;;;20.75;9.95;;;8.80;99.90;;;;;;5031428;28;20094;-71
2022/01/29 07:21:32;;;;;;;18.02;9.70;;;8.80;99.90;;;;;;5033577;28;20040;-70
2022/01/29 07:23:57;;;;;;;16.77;9.90;;;8.80;99.90;;;;;;5036826;28;20049;-71
2022/01/29 07:26:23;;;;;;;21.75;9.25;;;8.80;99.90;;;;;;5035342;28;20107;-69
2022/01/29 07:28:48;;;;;;;21.63;10.15;;;8.80;99.90;;;;;;5034488;28;20053;-70
2022/01/29 07:31:14;;;;;;;17.33;9.27;;;8.80;99.90;;;;;;5037258;28;20060;-69
2022/01/29 07:33:39;;;;;;;18.92;10.10;;;8.80;99.90;;;;;;5033474;28;20346;-69
2022/01/29 07:36:05;;;;;;;20.13;9.20;;;8.80;99.90;;;;;;5035537;28;20044;-69
2022/01/29 07:38:31;;;;;;;25.90;10.90;;;8.80;99.90;;;;;;5038130;28;20061;-69
2022/01/29 07:40:56;;;;;;;20.33;10.63;;;8.80;99.90;;;;;;5039052;28;20063;-69
2022/01/29 07:43:22;;;;;;;20.52;10.10;;;8.80;99.90;;;;;;5045889;28;20049;-68
2022/01/29 07:45:48;;;;;;;20.52;10.18;;;8.80;99.90;;;;;;5045282;28;20033;-71
2022/01/29 07:48:13;;;;;;;18.15;10.25;;;8.80;99.90;;;;;;5018497;28;20071;-69
2022/01/29 07:50:39;;;;;;;21.98;10.23;;;8.80;99.90;;;;;;5047958;28;20037;-69
2022/01/29 07:53:05;;;;;;;20.23;9.80;;;8.80;99.90;;;;;;5032490;28;20037;-68
2022/01/29 07:55:31;;;;;;;21.58;10.00;;;8.80;99.90;;;;;;5045356;28;20116;-70
2022/01/29 07:57:58;;;;;;;17.95;9.07;;;8.80;99.90;;;;;;5029885;28;20038;-70
2022/01/29 08:00:23;;;;;;;17.73;8.63;;;8.90;99.90;;;;;;5041412;28;20029;-69
2022/01/29 08:02:49;;;;;;;19.23;9.00;;;8.90;99.90;;;;;;5034260;28;20186;-69
2022/01/29 08:05:14;;;;;;;17.13;8.55;;;8.90;99.90;;;;;;5044679;28;20033;-69
2022/01/29 08:07:40;;;;;;;17.23;8.85;;;8.90;99.90;;;;;;5041896;28;20048;-67
2022/01/29 08:10:07;;;;;;;18.65;8.38;;;8.90;99.90;;;;;;5048121;28;20045;-67
2022/01/29 08:12:33;;;;;;;19.13;8.27;;;8.90;99.90;;;;;;5047088;28;20159;-68
2022/01/29 08:14:58;;;;;;;16.98;8.55;;;9.00;99.90;;;;;;5046903;28;20135;-67
2022/01/29 08:17:24;;;;;;;16.50;8.65;;;9.00;99.90;;;;;;5046669;28;20040;-67
2022/01/29 08:19:50;;;;;;;17.60;7.97;;;9.00;99.90;;;;;;5049909;28;20144;-68
2022/01/29 08:22:17;;;;;;;15.00;7.53;;;9.00;99.90;;;;;;5046145;28;20540;-67
2022/01/29 08:24:42;;;;;;;14.10;7.20;;;9.10;99.90;;;;;;5034883;28;20059;-67
2022/01/29 08:27:08;;;;;;;13.48;6.65;;;9.00;99.90;;;;;;5034512;28;20345;-68
2022/01/29 08:29:34;;;;;;;15.95;7.25;;;9.10;99.90;;;;;;5028413;28;20044;-67
2022/01/29 08:31:59;;;;;;;16.17;6.30;;;9.10;99.90;;;;;;5033973;28;20037;-67
2022/01/29 08:34:26;;;;;;;15.25;7.43;;;9.10;99.90;;;;;;5028187;28;20056;-67
2022/01/29 08:36:52;;;;;;;13.82;7.32;;;9.10;99.90;;;;;;5030654;28;20449;-69
2022/01/29 08:39:18;;;;;;;15.20;6.68;;;9.10;99.90;;;;;;5027666;28;20178;-68
2022/01/29 08:41:43;;;;;;;17.98;7.43;;;9.10;99.90;;;;;;5048394;28;20179;-68
2022/01/29 08:44:09;;;;;;;15.60;6.72;;;9.20;99.90;;;;;;5043597;28;20045;-69
2022/01/29 08:46:34;;;;;;;16.88;6.80;;;9.20;99.90;;;;;;5030856;28;20048;-67
2022/01/29 08:49:00;;;;;;;14.07;6.68;;;9.20;99.90;;;;;;5032955;28;20041;-67
2022/01/29 08:51:26;;;;;;;15.93;6.57;;;9.20;99.90;;;;;;5037475;28;20827;-67
2022/01/29 08:53:51;;;;;;;13.23;6.45;;;9.20;99.90;;;;;;5032613;28;20096;-66
2022/01/29 08:56:17;;;;;;;14.32;6.97;;;9.20;99.90;;;;;;5041479;28;20110;-67
2022/01/29 08:58:43;;;;;;;15.82;6.53;;;9.30;99.90;;;;;;5034624;28;20063;-69
2022/01/29 09:01:10;;;;;;;14.02;6.63;;;9.30;99.90;;;;;;5042489;28;20040;-71
2022/01/29 09:03:37;;;;;;;14.40;6.70;;;9.30;99.90;;;;;;5039593;28;20197;-69
2022/01/29 09:06:04;;;;;;;17.88;7.80;;;9.30;99.90;;;;;;5041548;28;20488;-68
2022/01/29 09:08:30;;;;;;;15.70;6.70;;;9.30;99.90;;;;;;5043138;28;20049;-69
2022/01/29 09:10:57;;;;;;;13.02;6.80;;;9.30;99.90;;;;;;5040245;28;20079;-67
2022/01/29 09:13:24;;;;;;;13.48;6.70;;;9.40;99.90;;;;;;5048169;28;20051;-68
2022/01/29 09:15:50;;;;;;;16.65;7.25;;;9.30;99.90;;;;;;5052024;28;20051;-67
2022/01/29 09:18:16;;;;;;;16.10;7.43;;;9.40;99.90;;;;;;5045256;28;20044;-68
2022/01/29 09:20:41;;;;;;;14.38;6.97;;;9.40;99.90;;;;;;5045679;28;20067;-68
2022/01/29 09:23:10;;;;;;;11.85;6.72;;;9.40;99.90;;;;;;5048272;28;20045;-68
2022/01/29 09:25:37;;;;;;;14.65;7.07;;;9.40;99.90;;;;;;5021714;28;20485;-67
2022/01/29 09:28:07;;;;;;;17.33;7.10;;;9.40;99.90;;;;;;5042658;28;20048;-68
2022/01/29 09:30:33;;;;;;;15.90;5.93;;;9.40;99.90;;;;;;5038320;28;20178;-68
2022/01/29 09:32:59;;;;;;;13.27;5.97;;;9.40;99.90;;;;;;5046201;28;20045;-67
2022/01/29 09:35:26;;;;;;;13.30;5.97;;;9.50;99.90;;;;;;5037195;28;20034;-67
2022/01/29 09:37:51;;;;;;;13.38;5.30;;;9.50;99.90;;;;;;5046211;28;20049;-69
2022/01/29 09:40:17;;;;;;;10.23;5.13;;;9.50;99.90;;;;;;5051786;28;20483;-67
2022/01/29 09:42:48;;;;;;;12.07;4.82;;;9.60;99.90;;;;;;5048002;28;20053;-68
2022/01/29 09:45:15;;;;;;;14.77;5.15;;;9.70;99.90;;;;;;5043621;28;20049;-68
2022/01/29 09:47:43;;;;;;;11.35;5.43;;;9.70;99.90;;;;;;5043846;28;20127;-68
2022/01/29 09:50:10;;;;;;;13.20;5.15;;;9.70;99.90;;;;;;5047955;28;20056;-68
2022/01/29 09:52:36;;;;;;;12.82;4.68;;;9.80;99.90;;;;;;5045181;28;20064;-67
2022/01/29 09:55:02;;;;;;;11.85;4.25;;;9.80;99.90;;;;;;5045921;28;20045;-67
2022/01/29 09:57:28;;;;;;;11.05;4.22;;;9.80;99.90;;;;;;5049993;28;20120;-68
2022/01/29 09:59:53;;;;;;;13.73;4.40;;;9.80;99.90;;;;;;5041343;28;20223;-67
2022/01/29 10:02:19;;;;;;;13.18;3.80;;;9.80;99.90;;;;;;5044999;28;20080;-67
2022/01/29 10:04:50;;;;;;;11.95;3.55;;;9.80;99.90;;;;;;5040005;28;20090;-66
2022/01/29 10:07:21;;;;;;;10.00;3.33;;;9.90;99.90;;;;;;5046856;28;20128;-67
2022/01/29 10:09:47;;;;;;;11.02;3.75;;;9.90;99.90;;;;;;5037956;28;20060;-67
2022/01/29 10:12:32;;;;;;;8.80;3.33;;;9.90;99.90;;;;;;5043886;28;20095;-67
2022/01/29 10:15:02;;;;;;;12.18;3.28;;;10.00;99.90;;;;;;5035427;28;20038;-68
2022/01/29 10:17:48;;;;;;;11.82;3.28;;;10.00;99.90;;;;;;5044519;28;20041;-67
2022/01/29 10:20:21;;;;;;;12.35;3.30;;;10.00;99.90;;;;;;5050520;28;20380;-68
2022/01/29 10:22:58;;;;;;;10.23;2.92;;;10.00;99.90;;;;;;5054086;28;20041;-68
2022/01/29 10:25:36;;;;;;;8.93;3.00;;;10.00;99.90;;;;;;5026954;28;20716;-67
2022/01/29 10:28:13;;;;;;;8.20;2.95;;;10.00;99.90;;;;;;5048100;28;20049;-67
2022/01/29 10:30:54;;;;;;;10.93;3.45;;;10.10;99.90;;;;;;5044991;28;21674;-70
2022/01/29 10:33:34;;;;;;;8.52;2.83;;;10.10;99.90;;;;;;5054429;28;20040;-68
2022/01/29 10:36:07;;;;;;;12.93;3.83;;;10.10;99.90;;;;;;5048983;28;20086;-69
2022/01/29 10:38:48;;;;;;;13.57;3.92;;;10.10;99.90;;;;;;5051191;28;20514;-69
2022/01/29 10:41:17;;;;;;;11.27;4.72;;;10.20;99.90;;;;;;5041762;28;20106;-69
2022/01/29 10:44:08;;;;;;;14.55;4.70;;;10.20;99.90;;;;;;5041761;28;20049;-70
2022/01/29 10:46:34;;;;;;;11.20;4.70;;;10.20;99.90;;;;;;5044721;28;20472;-70
2022/01/29 10:49:01;;;;;;;18.25;8.27;;;10.20;99.90;;;;;;5046692;28;20041;-69
2022/01/29 10:51:26;;;;;;;22.05;9.75;;;10.30;99.90;;;;;;5016955;28;20056;-71
2022/01/29 10:53:53;;;;;;;24.00;11.43;;;10.40;99.90;;;;;;5047741;28;20041;-70
2022/01/29 10:56:20;;;;;;;24.05;10.63;;;10.50;99.90;;;;;;5045689;28;20139;-70
2022/01/29 10:58:47;;;;;;;16.70;7.38;;;10.50;99.90;;;;;;5045522;28;20087;-69
2022/01/29 11:01:20;;;;;;;17.67;7.22;;;10.60;99.90;;;;;;5047780;28;20053;-70
2022/01/29 11:03:46;;;;;;;14.27;5.18;;;10.70;99.90;;;;;;5052251;28;20052;-70
2022/01/29 11:06:17;;;;;;;11.35;3.55;;;10.60;99.90;;;;;;5043010;28;20074;-66
2022/01/29 11:08:43;;;;;;;9.10;3.10;;;10.70;99.90;;;;;;5038752;28;20049;-67
2022/01/29 11:11:10;;;;;;;12.95;2.97;;;10.60;99.90;;;;;;5044160;28;20461;-68
2022/01/29 11:13:36;;;;;;;10.68;2.53;;;10.60;99.90;;;;;;5044640;28;20033;-69
2022/01/29 11:16:03;;;;;;;11.32;3.08;;;10.60;99.90;;;;;;5055709;28;20054;-68
2022/01/29 11:18:30;;;;;;;10.13;2.90;;;10.60;99.90;;;;;;5037266;28;20048;-68
2022/01/29 11:20:56;;;;;;;7.20;2.20;;;10.70;99.90;;;;;;5044567;28;20048;-68
2022/01/29 11:23:23;;;;;;;10.65;3.40;;;10.60;99.90;;;;;;5043033;28;20442;-67
2022/01/29 11:25:54;;;;;;;11.80;3.80;;;10.70;99.90;;;;;;5051990;28;20219;-66
2022/01/29 11:28:22;;;;;;;10.00;3.60;;;10.70;99.90;;;;;;5045459;28;20103;-67
2022/01/29 11:31:10;;;;;;;13.20;4.55;;;10.70;99.90;;;;;;5043055;28;20167;-67
2022/01/29 11:33:58;;;;;;;13.93;4.30;;;10.70;99.90;;;;;;5047555;28;20102;-67
2022/01/29 11:36:48;;;;;;;12.60;3.25;;;10.70;99.90;;;;;;5040337;28;20071;-67
2022/01/29 11:39:23;;;;;;;10.38;2.45;;;10.80;99.90;;;;;;5047942;28;20099;-68
2022/01/29 11:42:10;;;;;;;10.82;2.90;;;10.80;99.90;;;;;;5043517;28;20076;-69
2022/01/29 11:44:36;;;;;;;8.82;2.53;;;10.80;99.90;;;;;;5049754;28;20469;-68
2022/01/29 11:47:40;;;;;;;9.00;2.72;;;10.80;99.90;;;;;;5048732;28;20057;-69
2022/01/29 11:50:43;;;;;;;9.98;2.15;;;10.80;99.90;;;;;;5030239;28;20037;-68
2022/01/29 11:53:08;;;;;;;6.70;2.25;;;10.80;99.90;;;;;;5029252;28;20049;-69
2022/01/29 11:55:42;;;;;;;8.70;2.10;;;10.80;99.90;;;;;;5042182;28;20111;-69
2022/01/29 11:58:13;;;;;;;5.18;1.67;;;10.80;99.90;;;;;;5048095;28;20125;-69
2022/01/29 12:00:40;;;;;;;8.85;2.10;;;10.90;99.90;;;;;;5049689;28;20083;-68
2022/01/29 12:03:06;;;;;;;6.10;1.73;;;11.00;99.90;;;;;;5048442;28;20067;-69
2022/01/29 12:08:58;;;;;;;8.35;2.03;;;11.10;99.90;;;;;;5028986;28;20053;-69
2022/01/29 12:11:25;;;;;;;7.13;1.70;;;11.10;99.90;;;;;;5029939;28;20063;-68
2022/01/29 12:14:13;;;;;;;6.03;2.05;;;11.10;99.90;;;;;;5027744;28;20081;-68
2022/01/29 12:16:51;;;;;;;5.65;1.67;;;11.10;99.90;;;;;;5029713;28;20045;-68
2022/01/29 12:19:40;;;;;;;9.43;1.88;;;11.00;99.90;;;;;;5045058;28;20087;-68
2022/01/29 12:22:20;;;;;;;7.43;1.73;;;11.10;99.90;;;;;;5029637;28;20045;-69
2022/01/29 12:24:50;;;;;;;5.70;1.70;;;10.90;99.90;;;;;;5030152;28;20199;-68
2022/01/29 12:27:16;;;;;;;7.28;2.00;;;10.90;99.90;;;;;;5029677;28;20034;-68
2022/01/29 12:29:42;;;;;;;7.45;1.75;;;10.90;99.90;;;;;;5028283;28;20108;-69
2022/01/29 12:32:09;;;;;;;7.90;2.13;;;11.00;99.90;;;;;;5028245;28;20384;-69
2022/01/29 12:34:34;;;;;;;10.82;2.83;;;11.00;99.90;;;;;;5028478;28;20124;-68
2022/01/29 12:37:14;;;;;;;7.35;2.30;;;11.00;99.90;;;;;;5036488;28;20455;-69
2022/01/29 12:39:42;;;;;;;8.25;2.55;;;10.90;99.90;;;;;;5049485;28;20110;-69
2022/01/29 12:44:39;;;;;;;9.48;2.50;;;11.00;99.90;;;;;;5046977;28;20045;-68
2022/01/29 12:47:05;;;;;;;8.25;2.28;;;11.00;99.90;;;;;;5047778;28;20069;-68
2022/01/29 12:49:43;;;;;;;11.27;2.90;;;11.00;99.90;;;;;;5044168;28;20099;-69
2022/01/29 12:52:15;;;;;;;11.18;3.08;;;11.00;99.90;;;;;;5047884;28;20119;-69
2022/01/29 12:54:59;;;;;;;11.15;2.90;;;11.00;99.90;;;;;;5031102;28;20080;-69
2022/01/29 12:57:39;;;;;;;7.82;2.20;;;11.00;99.90;;;;;;5028537;28;20041;-69
2022/01/29 13:00:32;;;;;;;10.02;1.90;;;11.00;99.90;;;;;;5027127;28;20075;-69
2022/01/29 13:03:05;;;;;;;8.60;2.03;;;11.10;99.90;;;;;;5031255;28;20861;-70